Terminal Aerodrome Forecast
Issued by NWS Binghamton, NY

Home | Current Version | Previous Version | Text Only | Print | Product List | Glossary On
Versions: 1 2 3 4 5 6 7 8 9 10 11 12 13 14 15 16 17 18 19
000
FTUS41 KBGM 211700
TAFBGM
TAF
KBGM 211731Z 2118/2218 18005KT P6SM -SHRA OVC015
     FM220000 02006KT 6SM BR OVC015
      TEMPO 2208/2212 4SM BR OVC007
     FM221200 01006KT P6SM OVC010=

USA.gov is the U.S. government's official web portal to all federal, state and local government web resources and services.